createdAt,value
2017-09-26T00:00:49.831Z,1023.9
2017-09-26T00:01:51.527Z,1023.9
2017-09-26T00:02:53.244Z,1023.9
2017-09-26T00:03:54.965Z,1023.9
2017-09-26T00:04:56.677Z,1023.9
2017-09-26T00:05:58.524Z,1023.9
2017-09-26T00:07:00.228Z,1023.9
2017-09-26T00:08:01.971Z,1023.9
2017-09-26T00:09:03.662Z,1023.9
2017-09-26T00:10:05.372Z,1023.9
2017-09-26T00:11:07.127Z,1023.9
2017-09-26T00:12:08.813Z,1023.9
2017-09-26T00:13:10.521Z,1023.9
2017-09-26T00:14:12.277Z,1023.9
2017-09-26T00:15:14.035Z,1023.9
2017-09-26T00:16:15.819Z,1023.9
2017-09-26T00:17:17.534Z,1023.9
2017-09-26T00:18:19.260Z,1023.9
2017-09-26T00:19:20.978Z,1023.9
2017-09-26T00:20:22.687Z,1023.9
2017-09-26T00:21:24.399Z,1023.9
2017-09-26T00:22:26.120Z,1023.9
2017-09-26T00:23:27.837Z,1023.9
2017-09-26T00:24:29.585Z,1023.9
2017-09-26T00:25:31.313Z,1023.9
2017-09-26T00:26:33.014Z,1024.0
2017-09-26T00:27:34.717Z,1023.9
2017-09-26T00:28:36.439Z,1024.0
2017-09-26T00:29:38.164Z,1023.9
2017-09-26T00:30:39.878Z,1023.9
2017-09-26T00:31:41.628Z,1023.9
2017-09-26T00:32:43.327Z,1023.9
2017-09-26T00:33:45.052Z,1023.9
2017-09-26T00:34:46.821Z,1023.9
2017-09-26T00:35:48.499Z,1023.9
2017-09-26T00:36:50.211Z,1023.9
2017-09-26T00:37:51.891Z,1023.9
2017-09-26T00:38:53.602Z,1023.9
2017-09-26T00:39:55.293Z,1023.9
2017-09-26T00:40:57.026Z,1023.9
2017-09-26T00:41:58.822Z,1023.9
2017-09-26T00:43:00.523Z,1023.9
2017-09-26T00:44:02.234Z,1023.9
2017-09-26T00:45:03.931Z,1023.9
2017-09-26T00:46:05.632Z,1024.0
2017-09-26T00:47:07.351Z,1024.0
2017-09-26T00:48:09.064Z,1024.0
2017-09-26T00:49:10.806Z,1024.0
2017-09-26T00:50:12.502Z,1024.0
2017-09-26T00:51:14.204Z,1023.9
2017-09-26T00:52:15.910Z,1024.0
2017-09-26T00:53:17.627Z,1024.0
2017-09-26T00:54:19.318Z,1024.0
2017-09-26T00:55:21.029Z,1024.0
2017-09-26T00:56:22.746Z,1024.0
2017-09-26T00:57:24.465Z,1024.0
2017-09-26T00:58:26.191Z,1023.9
2017-09-26T00:59:27.897Z,1024.0
2017-09-26T01:00:30.419Z,1023.9
2017-09-26T01:01:32.122Z,1023.9
2017-09-26T01:02:34.761Z,1023.9
2017-09-26T01:03:36.476Z,1023.9
2017-09-26T01:04:38.162Z,1023.9
2017-09-26T01:05:39.886Z,1023.9
2017-09-26T01:06:41.572Z,1023.9
2017-09-26T01:07:43.300Z,1023.8
2017-09-26T01:08:45.015Z,1023.8
2017-09-26T01:09:46.739Z,1023.8
2017-09-26T01:10:48.440Z,1023.8
2017-09-26T01:11:50.140Z,1023.8
2017-09-26T01:12:51.850Z,1023.8
2017-09-26T01:13:53.551Z,1023.8
2017-09-26T01:14:55.270Z,1023.8
2017-09-26T01:15:57.041Z,1023.8
2017-09-26T01:16:58.789Z,1023.8
2017-09-26T01:18:00.506Z,1023.8
2017-09-26T01:19:02.237Z,1023.8
2017-09-26T01:20:03.927Z,1023.8
2017-09-26T01:21:05.634Z,1023.8
2017-09-26T01:22:07.348Z,1023.8
2017-09-26T01:23:09.052Z,1023.8
2017-09-26T01:24:10.766Z,1023.8
2017-09-26T01:25:12.474Z,1023.8
2017-09-26T01:26:14.199Z,1023.8
2017-09-26T01:27:16.026Z,1023.8
2017-09-26T01:28:18.006Z,1023.8
2017-09-26T01:29:19.740Z,1023.8
2017-09-26T01:30:21.602Z,1023.8
2017-09-26T01:31:23.339Z,1023.8
2017-09-26T01:32:25.988Z,1023.7
2017-09-26T01:33:27.722Z,1023.7
2017-09-26T01:34:29.433Z,1023.7
2017-09-26T01:35:31.139Z,1023.7
2017-09-26T01:36:32.858Z,1023.6
2017-09-26T01:37:34.555Z,1023.6
2017-09-26T01:38:36.268Z,1023.6
2017-09-26T01:39:37.972Z,1023.6
2017-09-26T01:40:39.699Z,1023.6
2017-09-26T01:41:41.446Z,1023.6
2017-09-26T01:42:43.155Z,1023.5
2017-09-26T01:43:44.877Z,1023.5
2017-09-26T01:44:46.592Z,1023.5
2017-09-26T01:45:48.288Z,1023.5
2017-09-26T01:46:50.001Z,1023.5
2017-09-26T01:47:51.754Z,1023.5
2017-09-26T01:48:53.455Z,1023.5
2017-09-26T01:49:55.166Z,1023.5
2017-09-26T01:50:56.983Z,1023.5
2017-09-26T01:51:58.768Z,1023.4
2017-09-26T01:53:00.516Z,1023.4
2017-09-26T01:54:02.245Z,1023.4
2017-09-26T01:55:03.937Z,1023.4
2017-09-26T01:56:05.691Z,1023.4
2017-09-26T01:57:07.440Z,1023.4
2017-09-26T01:58:09.184Z,1023.4
2017-09-26T01:59:10.921Z,1023.4
2017-09-26T02:00:12.642Z,1023.4
2017-09-26T02:01:14.344Z,1023.4
2017-09-26T02:02:16.075Z,1023.3
2017-09-26T02:03:17.765Z,1023.3
2017-09-26T02:04:19.492Z,1023.3
2017-09-26T02:05:21.218Z,1023.3
2017-09-26T02:06:22.923Z,1023.3
2017-09-26T02:07:24.699Z,1023.3
2017-09-26T02:08:26.434Z,1023.3
2017-09-26T02:09:28.160Z,1023.3
2017-09-26T02:10:29.871Z,1023.3
2017-09-26T02:11:31.601Z,1023.3
2017-09-26T02:12:33.307Z,1023.2
2017-09-26T02:13:34.997Z,1023.2
2017-09-26T02:14:36.754Z,1023.2
2017-09-26T02:15:38.478Z,1023.2
2017-09-26T02:16:40.174Z,1023.2
2017-09-26T02:17:41.884Z,1023.2
2017-09-26T02:18:43.982Z,1023.2
2017-09-26T02:19:47.017Z,1023.2
2017-09-26T02:20:50.126Z,1023.2
2017-09-26T02:21:54.292Z,1023.2
2017-09-26T02:22:56.896Z,1023.1
2017-09-26T02:24:01.110Z,1023.1
2017-09-26T02:25:04.701Z,1023.1
2017-09-26T02:26:07.491Z,1023.1
2017-09-26T02:27:11.329Z,1023.1
2017-09-26T02:28:15.425Z,1023.1
2017-09-26T02:29:18.139Z,1023.1
2017-09-26T02:30:20.848Z,1023.0
2017-09-26T02:31:26.468Z,1023.0
2017-09-26T02:32:29.294Z,1023.0
2017-09-26T02:33:32.840Z,1023.0
2017-09-26T02:34:36.077Z,1023.0
2017-09-26T02:35:39.380Z,1023.0
2017-09-26T02:36:43.470Z,1023.0
2017-09-26T02:37:46.178Z,1023.0
2017-09-26T02:38:48.493Z,1023.0
2017-09-26T02:39:53.873Z,1023.0
2017-09-26T02:40:57.080Z,1022.9
2017-09-26T02:42:02.086Z,1022.9
2017-09-26T02:43:06.447Z,1022.9
2017-09-26T02:44:09.981Z,1022.9
2017-09-26T02:45:14.404Z,1022.9
2017-09-26T02:46:17.196Z,1022.9
2017-09-26T02:47:21.613Z,1022.9
2017-09-26T02:48:25.618Z,1022.9
2017-09-26T02:49:28.963Z,1022.9
2017-09-26T02:50:31.564Z,1022.9
2017-09-26T02:51:33.274Z,1022.9
2017-09-26T02:52:34.983Z,1022.8
2017-09-26T02:53:36.686Z,1022.9
2017-09-26T02:54:38.402Z,1022.9
2017-09-26T02:55:40.410Z,1022.9
2017-09-26T02:56:42.116Z,1022.8
2017-09-26T02:57:43.810Z,1022.9
2017-09-26T02:58:45.700Z,1022.8
2017-09-26T02:59:47.390Z,1022.9
2017-09-26T03:00:49.140Z,1022.8
2017-09-26T03:01:50.881Z,1022.8
2017-09-26T03:02:52.584Z,1022.8
2017-09-26T03:03:54.306Z,1022.8
2017-09-26T03:04:56.043Z,1022.8
2017-09-26T03:05:57.793Z,1022.8
2017-09-26T03:06:59.557Z,1022.8
2017-09-26T03:08:01.323Z,1022.8
2017-09-26T03:09:03.060Z,1022.8
2017-09-26T03:10:05.476Z,1022.8
2017-09-26T03:11:07.203Z,1022.8
2017-09-26T03:12:08.922Z,1022.8
2017-09-26T03:13:10.648Z,1022.8
2017-09-26T03:14:12.360Z,1022.8
2017-09-26T03:15:14.062Z,1022.8
2017-09-26T03:16:16.200Z,1022.7
2017-09-26T03:17:18.171Z,1022.8
2017-09-26T03:18:20.224Z,1022.7
2017-09-26T03:19:21.981Z,1022.7
2017-09-26T03:20:23.683Z,1022.7
2017-09-26T03:21:25.476Z,1022.6
2017-09-26T03:22:27.559Z,1022.7
2017-09-26T03:23:29.270Z,1022.6
2017-09-26T03:24:31.009Z,1022.7
2017-09-26T03:25:32.725Z,1022.6
2017-09-26T03:26:34.434Z,1022.6
2017-09-26T03:27:36.181Z,1022.7
2017-09-26T03:28:37.960Z,1022.7
2017-09-26T03:29:39.693Z,1022.6
2017-09-26T03:30:42.506Z,1022.6
2017-09-26T03:31:44.205Z,1022.6
2017-09-26T03:32:45.905Z,1022.7
2017-09-26T03:33:47.690Z,1022.6
2017-09-26T03:34:49.428Z,1022.6
2017-09-26T03:35:51.195Z,1022.6
2017-09-26T03:36:52.954Z,1022.6
2017-09-26T03:37:54.694Z,1022.6
2017-09-26T03:38:56.442Z,1022.6
2017-09-26T03:39:58.468Z,1022.6
2017-09-26T03:41:00.752Z,1022.6
2017-09-26T03:42:02.516Z,1022.6
2017-09-26T03:43:04.253Z,1022.6
2017-09-26T03:44:05.967Z,1022.6
2017-09-26T03:45:07.672Z,1022.5
2017-09-26T03:46:09.452Z,1022.6
2017-09-26T03:47:11.418Z,1022.6
2017-09-26T03:48:13.176Z,1022.6
2017-09-26T03:49:15.017Z,1022.6
2017-09-26T03:50:17.104Z,1022.5
2017-09-26T03:51:18.621Z,1022.6
2017-09-26T03:52:20.349Z,1022.6
2017-09-26T03:53:22.080Z,1022.6
2017-09-26T03:54:23.798Z,1022.5
2017-09-26T03:55:26.091Z,1022.5
2017-09-26T03:56:28.281Z,1022.5
2017-09-26T03:57:30.022Z,1022.5
2017-09-26T03:58:31.757Z,1022.5
2017-09-26T03:59:33.475Z,1022.5
2017-09-26T04:00:35.194Z,1022.4
2017-09-26T04:01:36.916Z,1022.5
2017-09-26T04:02:38.677Z,1022.4
2017-09-26T04:03:40.464Z,1022.4
2017-09-26T04:04:42.177Z,1022.4
2017-09-26T04:05:43.896Z,1022.4
2017-09-26T04:06:45.611Z,1022.4
2017-09-26T04:07:47.302Z,1022.4
2017-09-26T04:08:49.016Z,1022.4
2017-09-26T04:09:50.690Z,1022.4
2017-09-26T04:10:52.416Z,1022.4
2017-09-26T04:11:54.097Z,1022.4
2017-09-26T04:12:55.839Z,1022.4
2017-09-26T04:13:57.568Z,1022.4
2017-09-26T04:14:59.294Z,1022.4
2017-09-26T04:16:01.065Z,1022.4
2017-09-26T04:17:02.813Z,1022.4
2017-09-26T04:18:04.524Z,1022.3
2017-09-26T04:19:06.235Z,1022.3
2017-09-26T04:20:07.959Z,1022.3
2017-09-26T04:21:09.685Z,1022.3
2017-09-26T04:22:11.392Z,1022.3
2017-09-26T04:23:13.099Z,1022.3
2017-09-26T04:24:14.788Z,1022.4
2017-09-26T04:25:16.472Z,1022.3
2017-09-26T04:26:18.151Z,1022.3
2017-09-26T04:27:19.857Z,1022.3
2017-09-26T04:28:21.543Z,1022.3
2017-09-26T04:29:23.250Z,1022.3
2017-09-26T04:30:24.955Z,1022.3
2017-09-26T04:31:26.650Z,1022.3
2017-09-26T04:32:28.356Z,1022.3
2017-09-26T04:33:30.081Z,1022.3
2017-09-26T04:34:31.791Z,1022.3
2017-09-26T04:35:33.471Z,1022.3
2017-09-26T04:36:35.196Z,1022.3
2017-09-26T04:37:36.912Z,1022.2
2017-09-26T04:38:38.598Z,1022.2
2017-09-26T04:39:40.323Z,1022.2
2017-09-26T04:40:42.000Z,1022.2
2017-09-26T04:41:43.727Z,1022.2
2017-09-26T04:42:45.401Z,1022.2
2017-09-26T04:43:47.127Z,1022.1
2017-09-26T04:44:48.918Z,1022.2
2017-09-26T04:45:50.626Z,1022.1
2017-09-26T04:46:52.331Z,1022.2
2017-09-26T04:47:54.068Z,1022.1
2017-09-26T04:48:55.752Z,1022.2
2017-09-26T04:49:57.437Z,1022.1
2017-09-26T04:50:59.142Z,1022.2
2017-09-26T04:52:00.833Z,1022.1
2017-09-26T04:53:02.560Z,1022.1
2017-09-26T04:54:04.274Z,1022.1
2017-09-26T04:55:05.964Z,1022.0
2017-09-26T04:56:07.677Z,1022.0
2017-09-26T04:57:09.372Z,1022.0
2017-09-26T04:58:11.086Z,1021.9
2017-09-26T04:59:12.770Z,1021.9
2017-09-26T05:00:14.468Z,1021.9
2017-09-26T05:01:16.174Z,1021.9
2017-09-26T05:02:17.864Z,1022.0
2017-09-26T05:03:19.549Z,1022.0
2017-09-26T05:04:21.269Z,1022.0
2017-09-26T05:05:22.970Z,1022.0
2017-09-26T05:06:24.670Z,1022.0
2017-09-26T05:07:26.368Z,1022.0
2017-09-26T05:08:28.071Z,1022.0
2017-09-26T05:09:29.770Z,1022.1
2017-09-26T05:10:31.471Z,1022.0
2017-09-26T05:11:33.188Z,1022.0
2017-09-26T05:12:34.886Z,1022.0
2017-09-26T05:13:36.578Z,1022.0
2017-09-26T05:14:38.286Z,1022.0
2017-09-26T05:15:39.981Z,1022.0
2017-09-26T05:16:41.706Z,1022.0
2017-09-26T05:17:43.405Z,1022.0
2017-09-26T05:18:45.151Z,1022.0
2017-09-26T05:19:46.852Z,1022.0
2017-09-26T05:20:48.552Z,1022.0
2017-09-26T05:21:50.268Z,1022.0
2017-09-26T05:22:51.974Z,1022.0
2017-09-26T05:23:53.675Z,1021.9
2017-09-26T05:24:55.392Z,1021.9
2017-09-26T05:25:57.075Z,1021.9
2017-09-26T05:26:58.794Z,1022.0
2017-09-26T05:28:00.525Z,1021.9
2017-09-26T05:29:02.280Z,1022.0
2017-09-26T05:30:04.002Z,1022.0
2017-09-26T05:31:07.274Z,1022.0
2017-09-26T05:32:08.993Z,1022.0
2017-09-26T05:33:12.866Z,1022.0
2017-09-26T05:34:16.835Z,1022.0
2017-09-26T05:35:18.499Z,1022.0
2017-09-26T05:36:20.245Z,1022.1
2017-09-26T05:37:21.954Z,1022.0
2017-09-26T05:38:23.716Z,1022.1
2017-09-26T05:39:25.427Z,1022.0
2017-09-26T05:40:27.142Z,1022.1
2017-09-26T05:41:28.847Z,1022.1
2017-09-26T05:42:30.566Z,1022.0
2017-09-26T05:43:32.259Z,1022.1
2017-09-26T05:44:33.955Z,1022.0
2017-09-26T05:45:35.668Z,1022.0
2017-09-26T05:46:37.397Z,1022.0
2017-09-26T05:47:39.122Z,1022.0
2017-09-26T05:48:40.846Z,1022.0
2017-09-26T05:49:42.567Z,1022.0
2017-09-26T05:50:44.286Z,1022.1
2017-09-26T05:51:45.982Z,1022.0
2017-09-26T05:52:47.701Z,1022.0
2017-09-26T05:53:49.421Z,1022.1
2017-09-26T05:54:51.122Z,1022.0
2017-09-26T05:55:52.826Z,1022.0
2017-09-26T05:56:54.508Z,1022.0
2017-09-26T05:57:56.210Z,1022.0
2017-09-26T05:58:57.907Z,1021.9
2017-09-26T05:59:59.620Z,1022.0
2017-09-26T06:01:01.346Z,1022.0
2017-09-26T06:02:03.110Z,1022.0
2017-09-26T06:03:04.825Z,1022.0
2017-09-26T06:04:06.552Z,1022.0
2017-09-26T06:05:08.260Z,1022.0
2017-09-26T06:06:10.005Z,1022.0
2017-09-26T06:07:11.723Z,1022.0
2017-09-26T06:08:13.447Z,1022.0
2017-09-26T06:09:15.142Z,1022.0
2017-09-26T06:10:16.849Z,1022.0
2017-09-26T06:11:18.567Z,1022.0
2017-09-26T06:12:20.285Z,1022.0
2017-09-26T06:13:22.005Z,1022.0
2017-09-26T06:14:23.727Z,1022.0
2017-09-26T06:15:25.435Z,1022.0
2017-09-26T06:16:27.125Z,1022.0
2017-09-26T06:17:28.831Z,1022.0
2017-09-26T06:18:30.532Z,1022.0
2017-09-26T06:19:32.248Z,1022.0
2017-09-26T06:20:33.987Z,1022.0
2017-09-26T06:21:35.701Z,1022.0
2017-09-26T06:22:37.493Z,1022.0
2017-09-26T06:23:39.245Z,1022.0
2017-09-26T06:24:41.046Z,1021.9
2017-09-26T06:25:42.878Z,1021.9
2017-09-26T06:26:44.630Z,1021.9
2017-09-26T06:27:46.426Z,1022.0
2017-09-26T06:28:48.162Z,1021.9
2017-09-26T06:29:49.901Z,1021.9
2017-09-26T06:30:51.624Z,1021.9
2017-09-26T06:31:53.339Z,1021.9
2017-09-26T06:32:55.105Z,1022.0
2017-09-26T06:33:56.816Z,1022.0
2017-09-26T06:34:58.532Z,1021.9
2017-09-26T06:36:00.275Z,1021.9
2017-09-26T06:37:02.023Z,1021.9
2017-09-26T06:38:03.745Z,1021.9
2017-09-26T06:39:05.490Z,1021.9
2017-09-26T06:40:07.218Z,1021.9
2017-09-26T06:41:08.961Z,1022.0
2017-09-26T06:42:10.711Z,1021.9
2017-09-26T06:43:12.426Z,1022.0
2017-09-26T06:44:14.152Z,1022.0
2017-09-26T06:45:15.858Z,1022.0
2017-09-26T06:46:17.593Z,1022.0
2017-09-26T06:47:19.316Z,1022.0
2017-09-26T06:48:21.084Z,1022.0
2017-09-26T06:49:22.799Z,1022.0
2017-09-26T06:50:24.520Z,1022.0
2017-09-26T06:51:26.256Z,1022.1
2017-09-26T06:52:28.022Z,1022.1
2017-09-26T06:53:30.148Z,1022.1
2017-09-26T06:54:31.866Z,1022.1
2017-09-26T06:55:33.561Z,1022.1
2017-09-26T06:56:35.304Z,1022.1
2017-09-26T06:57:37.014Z,1022.2
2017-09-26T06:58:38.745Z,1022.2
2017-09-26T06:59:40.497Z,1022.3
2017-09-26T07:00:42.212Z,1022.3
2017-09-26T07:01:43.960Z,1022.3
2017-09-26T07:02:45.671Z,1022.3
2017-09-26T07:03:47.396Z,1022.3
2017-09-26T07:04:49.364Z,1022.3
2017-09-26T07:05:51.077Z,1022.3
2017-09-26T07:06:52.803Z,1022.3
2017-09-26T07:07:54.516Z,1022.3
2017-09-26T07:08:56.258Z,1022.3
2017-09-26T07:09:58.014Z,1022.3
2017-09-26T07:11:00.574Z,1022.3
2017-09-26T07:12:02.282Z,1022.3
2017-09-26T07:13:04.021Z,1022.3
2017-09-26T07:14:05.764Z,1022.3
2017-09-26T07:15:07.510Z,1022.3
2017-09-26T07:16:10.389Z,1022.3
2017-09-26T07:17:12.115Z,1022.3
2017-09-26T07:18:13.872Z,1022.3
2017-09-26T07:19:16.479Z,1022.3
2017-09-26T07:20:17.311Z,1022.3
2017-09-26T07:21:19.027Z,1022.3
2017-09-26T07:22:20.826Z,1022.3
2017-09-26T07:23:22.574Z,1022.3
2017-09-26T07:24:24.291Z,1022.3
2017-09-26T07:25:26.213Z,1022.3
2017-09-26T07:26:27.959Z,1022.2
2017-09-26T07:27:29.701Z,1022.3
2017-09-26T07:28:31.486Z,1022.3
2017-09-26T07:29:33.205Z,1022.3
2017-09-26T07:30:35.865Z,1022.3
2017-09-26T07:31:37.546Z,1022.4
2017-09-26T07:32:39.274Z,1022.4
2017-09-26T07:33:40.991Z,1022.4
2017-09-26T07:34:43.724Z,1022.4
2017-09-26T07:35:45.408Z,1022.4
2017-09-26T07:36:48.693Z,1022.4
2017-09-26T07:37:50.418Z,1022.4
2017-09-26T07:38:52.150Z,1022.3
2017-09-26T07:39:53.873Z,1022.3
2017-09-26T07:40:55.613Z,1022.3
2017-09-26T07:41:57.327Z,1022.4
2017-09-26T07:42:59.072Z,1022.3
2017-09-26T07:44:00.794Z,1022.3
2017-09-26T07:45:02.526Z,1022.3
2017-09-26T07:46:04.285Z,1022.3
2017-09-26T07:47:06.205Z,1022.3
2017-09-26T07:48:07.928Z,1022.3
2017-09-26T07:49:09.663Z,1022.3
2017-09-26T07:50:11.391Z,1022.3
2017-09-26T07:51:13.144Z,1022.3
2017-09-26T07:52:15.242Z,1022.3
2017-09-26T07:53:16.946Z,1022.3
2017-09-26T07:54:18.731Z,1022.3
2017-09-26T07:55:20.438Z,1022.3
2017-09-26T07:56:22.144Z,1022.3
2017-09-26T07:57:23.910Z,1022.3
2017-09-26T07:58:25.645Z,1022.3
2017-09-26T07:59:27.441Z,1022.4
2017-09-26T08:00:29.147Z,1022.3
2017-09-26T08:01:30.910Z,1022.3
2017-09-26T08:02:32.638Z,1022.3
2017-09-26T08:03:34.353Z,1022.3
2017-09-26T08:04:36.071Z,1022.3
2017-09-26T08:05:37.761Z,1022.4
2017-09-26T08:06:39.496Z,1022.3
2017-09-26T08:07:41.228Z,1022.3
2017-09-26T08:08:42.968Z,1022.4
2017-09-26T08:09:44.687Z,1022.4
2017-09-26T08:10:47.199Z,1022.4
2017-09-26T08:11:48.926Z,1022.5
2017-09-26T08:12:50.667Z,1022.5
2017-09-26T08:13:52.378Z,1022.5
2017-09-26T08:14:54.083Z,1022.5
2017-09-26T08:15:55.800Z,1022.5
2017-09-26T08:16:57.535Z,1022.5
2017-09-26T08:17:59.229Z,1022.5
2017-09-26T08:19:01.903Z,1022.5
2017-09-26T08:20:03.622Z,1022.5
2017-09-26T08:21:05.366Z,1022.5
2017-09-26T08:22:07.076Z,1022.5
2017-09-26T08:23:08.775Z,1022.5
2017-09-26T08:24:10.495Z,1022.5
2017-09-26T08:25:12.231Z,1022.5
2017-09-26T08:26:13.934Z,1022.5
2017-09-26T08:27:15.653Z,1022.5
2017-09-26T08:28:17.399Z,1022.5
2017-09-26T08:29:19.129Z,1022.5
2017-09-26T08:30:20.887Z,1022.5
2017-09-26T08:31:22.620Z,1022.6
2017-09-26T08:32:24.344Z,1022.5
2017-09-26T08:33:26.076Z,1022.5
2017-09-26T08:34:27.810Z,1022.5
2017-09-26T08:35:29.593Z,1022.5
2017-09-26T08:36:31.323Z,1022.5
2017-09-26T08:37:33.026Z,1022.6
2017-09-26T08:38:35.432Z,1022.6
2017-09-26T08:39:37.167Z,1022.5
2017-09-26T08:40:38.970Z,1022.6
2017-09-26T08:41:40.721Z,1022.6
2017-09-26T08:42:42.457Z,1022.6
2017-09-26T08:43:44.173Z,1022.6
2017-09-26T08:44:45.877Z,1022.6
2017-09-26T08:45:47.595Z,1022.6
2017-09-26T08:46:49.314Z,1022.6
2017-09-26T08:47:51.036Z,1022.6
2017-09-26T08:48:52.760Z,1022.6
2017-09-26T08:49:54.492Z,1022.6
2017-09-26T08:50:56.222Z,1022.6
2017-09-26T08:51:59.423Z,1022.6
2017-09-26T08:53:01.123Z,1022.6
2017-09-26T08:54:02.808Z,1022.7
2017-09-26T08:55:04.540Z,1022.6
2017-09-26T08:56:06.266Z,1022.6
2017-09-26T08:57:07.990Z,1022.6
2017-09-26T08:58:09.699Z,1022.7
2017-09-26T08:59:11.387Z,1022.7
2017-09-26T09:00:13.074Z,1022.7
2017-09-26T09:01:14.771Z,1022.7
2017-09-26T09:02:16.485Z,1022.7
2017-09-26T09:03:18.178Z,1022.7
2017-09-26T09:04:19.884Z,1022.7
2017-09-26T09:05:21.574Z,1022.7
2017-09-26T09:06:23.291Z,1022.7
2017-09-26T09:07:25.001Z,1022.7
2017-09-26T09:08:26.716Z,1022.7
2017-09-26T09:09:28.432Z,1022.7
2017-09-26T09:10:30.179Z,1022.7
2017-09-26T09:11:31.908Z,1022.7
2017-09-26T09:12:33.639Z,1022.8
2017-09-26T09:13:35.358Z,1022.7
2017-09-26T09:14:37.132Z,1022.8
2017-09-26T09:15:38.842Z,1022.8
2017-09-26T09:16:40.570Z,1022.8
2017-09-26T09:17:42.293Z,1022.8
2017-09-26T09:18:44.021Z,1022.8
2017-09-26T09:19:45.747Z,1022.8
2017-09-26T09:20:47.475Z,1022.8
2017-09-26T09:21:49.211Z,1022.8
2017-09-26T09:22:50.907Z,1022.8
2017-09-26T09:23:52.615Z,1022.8
2017-09-26T09:24:54.314Z,1022.8
2017-09-26T09:25:56.024Z,1022.8
2017-09-26T09:26:57.736Z,1022.8
2017-09-26T09:27:59.461Z,1022.9
2017-09-26T09:29:01.175Z,1022.9
2017-09-26T09:30:02.874Z,1022.9
2017-09-26T09:31:04.568Z,1022.9
2017-09-26T09:32:06.319Z,1022.9
2017-09-26T09:33:08.056Z,1022.9
2017-09-26T09:34:09.775Z,1022.9
2017-09-26T09:35:11.461Z,1022.9
2017-09-26T09:36:13.167Z,1022.9
2017-09-26T09:37:14.895Z,1023.0
2017-09-26T09:38:16.643Z,1023.0
2017-09-26T09:39:18.404Z,1023.0
2017-09-26T09:40:20.115Z,1023.0
2017-09-26T09:41:21.850Z,1023.0
2017-09-26T09:42:23.558Z,1022.9
2017-09-26T09:43:25.281Z,1023.0
2017-09-26T09:44:26.989Z,1023.0
2017-09-26T09:45:28.701Z,1022.9
2017-09-26T09:46:30.417Z,1022.9
2017-09-26T09:47:32.142Z,1022.9
2017-09-26T09:48:33.862Z,1022.9
2017-09-26T09:49:35.596Z,1022.9
2017-09-26T09:50:37.265Z,1023.0
2017-09-26T09:51:38.981Z,1022.9
2017-09-26T09:52:40.691Z,1022.9
2017-09-26T09:53:42.400Z,1022.9
2017-09-26T09:54:44.114Z,1022.9
2017-09-26T09:55:45.795Z,1022.9
2017-09-26T09:56:47.500Z,1023.0
2017-09-26T09:57:49.291Z,1023.0
2017-09-26T09:58:51.024Z,1022.9
2017-09-26T09:59:52.783Z,1023.0
2017-09-26T10:00:54.519Z,1023.0
2017-09-26T10:01:56.245Z,1023.0
2017-09-26T10:02:57.969Z,1023.0
2017-09-26T10:04:00.539Z,1023.0
2017-09-26T10:05:02.273Z,1023.0
2017-09-26T10:06:03.987Z,1023.1
2017-09-26T10:07:05.711Z,1023.0
2017-09-26T10:08:07.407Z,1023.0
2017-09-26T10:09:09.155Z,1022.9
2017-09-26T10:10:10.883Z,1022.9
2017-09-26T10:11:12.597Z,1022.9
2017-09-26T10:12:14.362Z,1022.9
2017-09-26T10:13:16.104Z,1022.9
2017-09-26T10:14:17.819Z,1022.8
2017-09-26T10:15:19.526Z,1022.8
2017-09-26T10:16:21.222Z,1022.8
2017-09-26T10:17:22.915Z,1022.8
2017-09-26T10:18:24.619Z,1022.8
2017-09-26T10:19:26.315Z,1022.7
2017-09-26T10:20:28.055Z,1022.7
2017-09-26T10:21:29.771Z,1022.7
2017-09-26T10:22:31.485Z,1022.7
2017-09-26T10:23:33.196Z,1022.8
2017-09-26T10:24:34.928Z,1022.8
2017-09-26T10:25:36.665Z,1022.7
2017-09-26T10:26:38.383Z,1022.8
2017-09-26T10:27:40.133Z,1022.7
2017-09-26T10:28:41.859Z,1022.7
2017-09-26T10:29:43.602Z,1022.7
2017-09-26T10:30:45.318Z,1022.7
2017-09-26T10:31:47.057Z,1022.8
2017-09-26T10:32:48.773Z,1022.7
2017-09-26T10:33:50.508Z,1022.7
2017-09-26T10:34:52.233Z,1022.7
2017-09-26T10:35:53.982Z,1022.7
2017-09-26T10:36:55.708Z,1022.7
2017-09-26T10:37:57.412Z,1022.6
2017-09-26T10:38:59.126Z,1022.6
2017-09-26T10:40:00.843Z,1022.6
2017-09-26T10:41:02.577Z,1022.6
2017-09-26T10:42:04.298Z,1022.6
2017-09-26T10:43:06.018Z,1022.5
2017-09-26T10:44:07.732Z,1022.5
2017-09-26T10:45:09.491Z,1022.5
2017-09-26T10:46:11.231Z,1022.5
2017-09-26T10:47:12.940Z,1022.5
2017-09-26T10:48:14.653Z,1022.4
2017-09-26T10:49:16.380Z,1022.4
2017-09-26T10:50:18.115Z,1022.4
2017-09-26T10:51:19.821Z,1022.4
2017-09-26T10:52:21.583Z,1022.4
2017-09-26T10:53:23.323Z,1022.4
2017-09-26T10:54:25.063Z,1022.4
2017-09-26T10:55:26.783Z,1022.4
2017-09-26T10:56:28.493Z,1022.5
2017-09-26T10:57:30.215Z,1022.6
2017-09-26T10:58:31.927Z,1022.6
2017-09-26T10:59:33.642Z,1022.7
2017-09-26T11:00:35.363Z,1022.7
2017-09-26T11:01:37.075Z,1022.6
2017-09-26T11:02:38.819Z,1022.7
2017-09-26T11:03:40.534Z,1022.6
2017-09-26T11:04:42.278Z,1022.6
2017-09-26T11:05:44.017Z,1022.6
2017-09-26T11:06:45.728Z,1022.6
2017-09-26T11:07:47.460Z,1022.6
2017-09-26T11:08:49.172Z,1022.6
2017-09-26T11:09:50.904Z,1022.6
2017-09-26T11:10:53.354Z,1022.6
2017-09-26T11:11:54.295Z,1022.6
2017-09-26T11:12:56.028Z,1022.6
2017-09-26T11:13:57.755Z,1022.6
2017-09-26T11:14:59.500Z,1022.6
2017-09-26T11:16:01.229Z,1022.5
2017-09-26T11:17:02.957Z,1022.5
2017-09-26T11:18:04.697Z,1022.5
2017-09-26T11:19:06.428Z,1022.5
2017-09-26T11:20:08.164Z,1022.5
2017-09-26T11:21:09.876Z,1022.5
2017-09-26T11:22:11.584Z,1022.5
2017-09-26T11:23:14.053Z,1022.5
2017-09-26T11:24:15.769Z,1022.5
2017-09-26T11:25:17.513Z,1022.5
2017-09-26T11:26:19.225Z,1022.6
2017-09-26T11:27:20.955Z,1022.5
2017-09-26T11:28:22.666Z,1022.5
2017-09-26T11:29:24.372Z,1022.5
2017-09-26T11:30:26.131Z,1022.5
2017-09-26T11:31:27.860Z,1022.6
2017-09-26T11:32:29.544Z,1022.6
2017-09-26T11:33:31.278Z,1022.6
2017-09-26T11:34:33.061Z,1022.5
2017-09-26T11:35:34.788Z,1022.5
2017-09-26T11:36:37.153Z,1022.6
2017-09-26T11:37:38.903Z,1022.6
2017-09-26T11:38:40.614Z,1022.6
2017-09-26T11:39:42.347Z,1022.6
2017-09-26T11:40:44.135Z,1022.6
2017-09-26T11:41:45.894Z,1022.6
2017-09-26T11:42:47.613Z,1022.6
2017-09-26T11:43:49.398Z,1022.6
2017-09-26T11:44:51.118Z,1022.6
2017-09-26T11:45:53.710Z,1022.6
2017-09-26T11:46:55.443Z,1022.6
2017-09-26T11:47:57.165Z,1022.6
2017-09-26T11:48:59.001Z,1022.6
2017-09-26T11:50:00.744Z,1022.6
2017-09-26T11:51:02.488Z,1022.7
2017-09-26T11:52:04.222Z,1022.7
2017-09-26T11:53:05.980Z,1022.6
2017-09-26T11:54:07.716Z,1022.6
2017-09-26T11:55:09.443Z,1022.6
2017-09-26T11:56:11.337Z,1022.6
2017-09-26T11:57:13.079Z,1022.7
2017-09-26T11:58:14.791Z,1022.6
2017-09-26T11:59:16.522Z,1022.7
2017-09-26T12:00:18.284Z,1022.7
2017-09-26T12:01:20.000Z,1022.7
2017-09-26T12:02:21.732Z,1022.7
2017-09-26T12:03:23.507Z,1022.7
2017-09-26T12:04:25.252Z,1022.6
2017-09-26T12:05:27.031Z,1022.7
2017-09-26T12:06:28.758Z,1022.7
2017-09-26T12:07:30.508Z,1022.6
2017-09-26T12:08:32.268Z,1022.6
2017-09-26T12:09:34.018Z,1022.6
2017-09-26T12:10:35.794Z,1022.6
2017-09-26T12:11:37.561Z,1022.6
2017-09-26T12:12:39.302Z,1022.6
2017-09-26T12:13:41.105Z,1022.6
2017-09-26T12:14:42.852Z,1022.6
2017-09-26T12:15:45.522Z,1022.7
2017-09-26T12:16:47.268Z,1022.7
2017-09-26T12:17:49.011Z,1022.7
2017-09-26T12:18:50.868Z,1022.7
2017-09-26T12:19:52.637Z,1022.7
2017-09-26T12:20:54.376Z,1022.7
2017-09-26T12:21:58.819Z,1022.6
2017-09-26T12:23:01.869Z,1022.7
2017-09-26T12:24:04.599Z,1022.6
2017-09-26T12:25:07.365Z,1022.6
2017-09-26T12:26:09.500Z,1022.6
2017-09-26T12:27:11.240Z,1022.6
2017-09-26T12:28:12.985Z,1022.6
2017-09-26T12:29:14.695Z,1022.6
2017-09-26T12:30:16.459Z,1022.6
2017-09-26T12:31:18.257Z,1022.6
2017-09-26T12:32:20.006Z,1022.6
2017-09-26T12:33:21.742Z,1022.6
2017-09-26T12:34:23.498Z,1022.6
2017-09-26T12:35:25.280Z,1022.5
2017-09-26T12:36:27.023Z,1022.5
2017-09-26T12:37:28.789Z,1022.5
2017-09-26T12:38:30.536Z,1022.4
2017-09-26T12:39:32.264Z,1022.4
2017-09-26T12:40:34.033Z,1022.4
2017-09-26T12:41:35.776Z,1022.3
2017-09-26T12:42:37.528Z,1022.3
2017-09-26T12:43:39.274Z,1022.3
2017-09-26T12:44:41.022Z,1022.2
2017-09-26T12:45:42.785Z,1022.2
2017-09-26T12:46:44.510Z,1022.2
2017-09-26T12:47:46.272Z,1022.2
2017-09-26T12:48:48.051Z,1022.2
2017-09-26T12:49:49.923Z,1022.1
2017-09-26T12:50:51.666Z,1022.1
2017-09-26T12:51:53.398Z,1022.1